Menu Close Menu
Station Historical Data
Daily Summary for November 19, 2017 Units:  Metric    English   Both
« Previous Day
Next Day »
Daily Weekly Monthly Yearly Custom
  High: Low: Average:
Temperature: 12.8 °C 2.4 °C 7.7 °C
Dew Point: 11.2 °C -1.7 °C 1.7 °C
Humidity: 90% 48% 67%
Wind Speed: 18.5km/h 0km/h 7.6km/h
Wind Gust: 18.5km/h - -
Wind- - SW
Pressure: 1022.9 hPa 1008.7 hPa -
Precipitation: 0 mm    
Historical Graphs
 
 
Tabular Data for November 19, 2017
Time Temperature Dew Point Pressure Wind Wind Speed Wind Gust Humidity Rainfall Rate (Hourly) solar Conditions
00:02 12.8 °C 11.2 °C 1008.7 hPa WNW 11.1 km/h 11.1 km/h 90% 0.76 mm WeatherDisplay:10.37 W/m2 SCT
00:07 12.8 °C 11.2 °C 1008.7 hPa WNW 11.1 km/h 11.1 km/h 90% 0.76 mm WeatherDisplay:10.37 W/m2 SCT
00:12 12.6 °C 11 °C 1008.7 hPa WNW 7.4 km/h 7.4 km/h 90% 0.76 mm WeatherDisplay:10.37 W/m2 -RA
00:17 12.4 °C 10.7 °C 1009 hPa WNW 9.3 km/h 9.3 km/h 89% 0.76 mm WeatherDisplay:10.37 W/m2 -RA
00:22 12.3 °C 10.5 °C 1009 hPa NNW 13 km/h 13 km/h 89% 0.51 mm WeatherDisplay:10.37 W/m2 -RA
00:27 12.2 °C 10.4 °C 1009.4 hPa West 14.8 km/h 14.8 km/h 89% 0.51 mm WeatherDisplay:10.37 W/m2 SCT
00:32 12 °C 9.9 °C 1009.4 hPa West 16.7 km/h 16.7 km/h 87% 0.51 mm WeatherDisplay:10.37 W/m2 -RA
00:47 11.4 °C 9.1 °C 1009.7 hPa WNW 14.8 km/h 14.8 km/h 86% 0 mm WeatherDisplay:10.37 W/m2 SCT
00:52 11.2 °C 8.7 °C 1010 hPa NNW 13 km/h 13 km/h 85% 0 mm WeatherDisplay:10.37 W/m2 BKN
01:03 10.8 °C 8.2 °C 1010.4 hPa West 14.8 km/h 14.8 km/h 84% 0 mm WeatherDisplay:10.37 W/m2 BKN
01:08 10.7 °C 8.1 °C 1010.4 hPa SW 14.8 km/h 14.8 km/h 84% 0 mm WeatherDisplay:10.37 W/m2 BKN
01:18 10.4 °C 7.6 °C 1010.7 hPa WSW 9.3 km/h 9.3 km/h 83% 0 mm WeatherDisplay:10.37 W/m2 BKN
01:33 9.9 °C 6.8 °C 1011.1 hPa WNW 13 km/h 13 km/h 81% 0 mm WeatherDisplay:10.37 W/m2 BKN
01:43 9.7 °C 6.3 °C 1011.4 hPa West 13 km/h 13 km/h 79% 0 mm WeatherDisplay:10.37 W/m2 BKN
01:48 9.6 °C 5.9 °C 1011.4 hPa West 9.3 km/h 9.3 km/h 78% 0 mm WeatherDisplay:10.37 W/m2 BKN
01:53 9.6 °C 5.9 °C 1011.4 hPa WSW 14.8 km/h 14.8 km/h 78% 0 mm WeatherDisplay:10.37 W/m2 BKN
01:58 9.3 °C 5.7 °C 1011.4 hPa WSW 14.8 km/h 14.8 km/h 78% 0 mm WeatherDisplay:10.37 W/m2 BKN
02:04 9.2 °C 5.4 °C 1011.4 hPa SSW 9.3 km/h 9.3 km/h 77% 0 mm WeatherDisplay:10.37 W/m2 BKN
02:09 9.1 °C 5.4 °C 1011.4 hPa West 9.3 km/h 9.3 km/h 78% 0 mm WeatherDisplay:10.37 W/m2 BKN
02:14 8.9 °C 5.3 °C 1011.4 hPa WSW 14.8 km/h 14.8 km/h 78% 0 mm WeatherDisplay:10.37 W/m2 BKN
02:19 8.9 °C 5.3 °C 1011.7 hPa West 14.8 km/h 14.8 km/h 78% 0 mm WeatherDisplay:10.37 W/m2 BKN
02:24 8.8 °C 4.9 °C 1011.7 hPa WNW 9.3 km/h 9.3 km/h 77% 0 mm WeatherDisplay:10.37 W/m2 BKN
02:39 8.4 °C 4.8 °C 1012.1 hPa SE 16.7 km/h 16.7 km/h 78% 0 mm WeatherDisplay:10.37 W/m2 SCT
02:59 8.4 °C 4.6 °C 1012.1 hPa SSE 13 km/h 13 km/h 77% 0 mm WeatherDisplay:10.37 W/m2 SCT
03:05 8.4 °C 4.8 °C 1012.1 hPa SE 1.6 km/h 9.7 km/h 78% 0 mm WeatherDisplay:10.37 W/m2 BKN
03:15 8.4 °C 4.9 °C 1012.1 hPa West 9.3 km/h 9.3 km/h 79% 0 mm WeatherDisplay:10.37 W/m2 BKN
03:30 8.2 °C 4 °C 1012.8 hPa SSW 13 km/h 13 km/h 75% 0 mm WeatherDisplay:10.37 W/m2 BKN
03:35 8.1 °C 4.1 °C 1012.8 hPa SSW 13 km/h 13 km/h 76% 0 mm WeatherDisplay:10.37 W/m2 BKN
03:50 7.8 °C 3.6 °C 1013.1 hPa SE 13 km/h 13 km/h 75% 0 mm WeatherDisplay:10.37 W/m2 BKN
03:55 7.7 °C 3.3 °C 1013.4 hPa SSE 14.8 km/h   74% 0 mm WeatherDisplay:10.37 W/m2 BKN
04:00 7.6 °C 3.4 °C 1013.1 hPa SSE 14.8 km/h   75% 0 mm WeatherDisplay:10.37 W/m2 BKN
04:05 7.5 °C 3.3 °C 1013.4 hPa West 5.6 km/h 5.6 km/h 75% 0 mm WeatherDisplay:10.37 W/m2 OVC
04:10 7.5 °C 3.6 °C 1013.4 hPa West 14.8 km/h 14.8 km/h 76% 0 mm WeatherDisplay:10.37 W/m2 OVC
04:16 7.4 °C 3.1 °C 1013.4 hPa ESE 14.8 km/h 14.8 km/h 74% 0 mm WeatherDisplay:10.37 W/m2 OVC
04:26 7.3 °C 3 °C 1013.4 hPa SE 11.1 km/h 11.1 km/h 74% 0 mm WeatherDisplay:10.37 W/m2 OVC
04:31 7.3 °C 3.1 °C 1013.8 hPa North 9.3 km/h 9.3 km/h 75% 0 mm WeatherDisplay:10.37 W/m2 OVC
04:36 7.2 °C 3.3 °C 1013.8 hPa NW 9.3 km/h 9.3 km/h 76% 0 mm WeatherDisplay:10.37 W/m2 OVC
04:41 7.2 °C 3.1 °C 1014.1 hPa NW 7.4 km/h 7.4 km/h 75% 0 mm WeatherDisplay:10.37 W/m2 OVC
04:51 7.1 °C 2.7 °C 1014.1 hPa NNW 18.5 km/h 18.5 km/h 74% 0 mm WeatherDisplay:10.37 W/m2 OVC
04:56 6.9 °C 2.6 °C 1014.1 hPa WNW 18.5 km/h 18.5 km/h 74% 0 mm WeatherDisplay:10.37 W/m2 OVC
05:01 6.9 °C 2.6 °C 1014.1 hPa WNW 13 km/h 13 km/h 74% 0 mm WeatherDisplay:10.37 W/m2 OVC
05:06 6.8 °C 2.5 °C 1014.4 hPa WNW 9.3 km/h 9.3 km/h 74% 0 mm WeatherDisplay:10.37 W/m2 OVC
05:11 6.8 °C 2.7 °C 1014.4 hPa ESE 9.3 km/h 9.3 km/h 75% 0 mm WeatherDisplay:10.37 W/m2 OVC
05:17 6.7 °C 2.6 °C 1014.4 hPa NE 9.3 km/h   75% 0 mm WeatherDisplay:10.37 W/m2 OVC
05:22 6.7 °C 2.9 °C 1014.4 hPa North 7.4 km/h 7.4 km/h 77% 0 mm WeatherDisplay:10.37 W/m2 OVC
05:27 6.7 °C 2.7 °C 1014.4 hPa NE 7.4 km/h 7.4 km/h 76% 0 mm WeatherDisplay:10.37 W/m2 OVC
05:32 6.6 °C 2.9 °C 1014.4 hPa SE 7.4 km/h   77% 0 mm WeatherDisplay:10.37 W/m2 OVC
05:42 6.6 °C 2.7 °C 1014.8 hPa SW 5.6 km/h   76% 0 mm WeatherDisplay:10.37 W/m2 OVC
05:52 6.5 °C 2.8 °C 1015.1 hPa NNW 3.7 km/h 3.7 km/h 77% 0 mm WeatherDisplay:10.37 W/m2 OVC
05:57 6.5 °C 2.8 °C 1015.1 hPa SSE 7.4 km/h   77% 0 mm WeatherDisplay:10.37 W/m2 OVC
06:07 6.4 °C 2.7 °C 1015.1 hPa NW 7.4 km/h 7.4 km/h 77% 0 mm WeatherDisplay:10.37 W/m2 BKN
06:12 6.4 °C 2.3 °C 1015.5 hPa NE 9.3 km/h 9.3 km/h 75% 0 mm WeatherDisplay:10.37 W/m2 BKN
06:17 6.5 °C 2.4 °C 1015.5 hPa East 9.3 km/h 9.3 km/h 75% 0 mm WeatherDisplay:10.37 W/m2 BKN
06:23 6.5 °C 2.4 °C 1015.5 hPa SW 9.3 km/h 9.3 km/h 75% 0 mm WeatherDisplay:10.37 W/m2 BKN
06:28 6.4 °C 2.5 °C 1015.5 hPa South 7.4 km/h 7.4 km/h 76% 0 mm WeatherDisplay:10.37 W/m2 BKN
06:33 6.4 °C 2.5 °C 1015.5 hPa West 7.4 km/h 7.4 km/h 76% 0 mm WeatherDisplay:10.37 W/m2 BKN
06:38 6.4 °C 2.7 °C 1015.8 hPa West 5.6 km/h 5.6 km/h 77% 0 mm WeatherDisplay:10.37 W/m2 BKN
06:43 6.4 °C 2.4 °C 1015.8 hPa WSW 11.1 km/h 11.1 km/h 76% 0 mm WeatherDisplay:10.37 W/m2 BKN
06:48 6.3 °C 2.2 °C 1015.8 hPa South 11.1 km/h 11.1 km/h 75% 0 mm WeatherDisplay:10.37 W/m2 BKN
06:58 6.2 °C 2.2 °C 1015.8 hPa NNW 11.1 km/h 11.1 km/h 76% 0 mm WeatherDisplay:10.37 W/m2 BKN
07:03 6.1 °C 2 °C 1015.8 hPa NNW 7.4 km/h 7.4 km/h 75% 0 mm WeatherDisplay:10.37 W/m2 OVC
07:08 6.1 °C 1.9 °C 1015.8 hPa West 5.6 km/h 5.6 km/h 75% 0 mm WeatherDisplay:10.37 W/m2 OVC
07:13 6 °C 1.9 °C 1016.1 hPa WSW 7.4 km/h 7.4 km/h 75% 0 mm WeatherDisplay:10.37 W/m2 OVC
07:24 5.9 °C 1.8 °C 1016.1 hPa NE 3.7 km/h   75% 0 mm WeatherDisplay:10.37 W/m2 OVC
07:34 5.9 °C 1.6 °C 1016.1 hPa ESE 9.3 km/h 9.3 km/h 74% 0 mm WeatherDisplay:10.37 W/m2 OVC
07:44 5.8 °C 1.2 °C 1016.5 hPa SE 7.4 km/h 7.4 km/h 72% 0 mm WeatherDisplay:10.37 W/m2 OVC
07:49 5.8 °C 0.9 °C 1016.5 hPa South 7.4 km/h 7.4 km/h 71% 0 mm WeatherDisplay:10.37 W/m2 OVC
07:54 5.8 °C 0.9 °C 1016.5 hPa WNW 9.3 km/h 9.3 km/h 71% 0 mm WeatherDisplay:10.37 W/m2 OVC
07:59 5.7 °C 0.9 °C 1016.5 hPa North 9.3 km/h 9.3 km/h 71% 0 mm WeatherDisplay:10.37 W/m2 OVC
08:04 5.7 °C 1 °C 1016.5 hPa North 9.3 km/h 9.3 km/h 72% 0 mm WeatherDisplay:10.37 W/m2 OVC
08:10 5.7 °C 0.8 °C 1016.5 hPa ESE 9.3 km/h   71% 0 mm WeatherDisplay:10.37 W/m2 OVC
08:15 5.7 °C 0.9 °C 1016.5 hPa South 9.3 km/h   71% 0 mm WeatherDisplay:10.37 W/m2 OVC
08:30 5.7 °C 0.4 °C 1016.8 hPa South 11.1 km/h   69% 0 mm WeatherDisplay:10.37 W/m2 OVC
08:35 5.8 °C 0.3 °C 1016.8 hPa East 11.1 km/h 11.1 km/h 68% 0 mm WeatherDisplay:10.37 W/m2 OVC
08:45 6.1 °C 0.8 °C 1017.2 hPa East 13 km/h 13 km/h 69% 0 mm WeatherDisplay:10.37 W/m2 OVC
08:55 6.5 °C 1.2 °C 1017.2 hPa NW 3.7 km/h 3.7 km/h 69% 0 mm WeatherDisplay:10.37 W/m2 OVC
09:00 6.5 °C 1 °C 1017.2 hPa West 11.1 km/h 11.1 km/h 68% 0 mm WeatherDisplay:10.37 W/m2 OVC
09:11 6.6 °C 1.3 °C 1017.5 hPa West 7.4 km/h   69% 0 mm WeatherDisplay:10.37 W/m2 BKN
09:16 6.7 °C 0.9 °C 1017.5 hPa WNW 9.3 km/h 9.3 km/h 67% 0 mm WeatherDisplay:10.37 W/m2 BKN
09:21 6.6 °C 1.1 °C 1017.5 hPa SSW 9.3 km/h 9.3 km/h 68% 0 mm WeatherDisplay:10.37 W/m2 BKN
09:26 6.7 °C 1 °C 1017.5 hPa SSE 7.4 km/h 7.4 km/h 67% 0 mm WeatherDisplay:10.37 W/m2 BKN
09:31 6.9 °C 1.4 °C 1017.5 hPa South 5.6 km/h 5.6 km/h 68% 0 mm WeatherDisplay:10.37 W/m2 BKN
09:56 7.7 °C 1.3 °C 1017.8 hPa WSW 5.6 km/h 5.6 km/h 64% 0 mm WeatherDisplay:10.37 W/m2 BKN
10:01 7.8 °C 1.7 °C 1017.8 hPa WSW 5.6 km/h 5.6 km/h 65% 0 mm WeatherDisplay:10.37 W/m2 FEW
10:11 8.1 °C 1.9 °C 1017.8 hPa West 7.4 km/h 7.4 km/h 65% 0 mm WeatherDisplay:10.37 W/m2 FEW
10:22 8.6 °C 1.5 °C 1017.8 hPa WSW 9.3 km/h 9.3 km/h 61% 0 mm WeatherDisplay:10.37 W/m2 FEW
10:27 8.7 °C 1.6 °C 1017.8 hPa WSW 7.4 km/h 7.4 km/h 61% 0 mm WeatherDisplay:10.37 W/m2 FEW
10:37 8.9 °C 2.1 °C 1017.8 hPa SSE 9.3 km/h 9.3 km/h 62% 0 mm WeatherDisplay:10.37 W/m2 FEW
10:42 9.1 °C 1.4 °C 1018.2 hPa North 9.3 km/h 9.3 km/h 59% 0 mm WeatherDisplay:10.37 W/m2 FEW
10:52 9.3 °C 1.2 °C 1018.2 hPa WSW 9.3 km/h 9.3 km/h 57% 0 mm WeatherDisplay:10.37 W/m2 FEW
10:57 9.2 °C 1.4 °C 1018.2 hPa North 9.3 km/h 9.3 km/h 58% 0 mm WeatherDisplay:10.37 W/m2 FEW
11:02 9.3 °C 1.4 °C 1018.2 hPa WNW 7.4 km/h 7.4 km/h 58% 0 mm WeatherDisplay:10.37 W/m2 FEW
11:10 9.3 °C 1.2 °C 1018.2 hPa WSW 7.4 km/h 7.4 km/h 57% 0 mm WeatherDisplay:10.37 W/m2 FEW
11:15 9.3 °C 1.7 °C 1018.2 hPa West 7.4 km/h 7.4 km/h 59% 0 mm WeatherDisplay:10.37 W/m2 FEW
11:25 9.4 °C 2 °C 1018.2 hPa West 7.4 km/h 7.4 km/h 60% 0 mm WeatherDisplay:10.37 W/m2 FEW
11:30 9.5 °C 1.4 °C 1018.2 hPa NW 7.4 km/h 7.4 km/h 57% 0 mm WeatherDisplay:10.37 W/m2 FEW
11:40 9.4 °C 1.1 °C 1018.2 hPa SSW 7.4 km/h 7.4 km/h 56% 0 mm WeatherDisplay:10.37 W/m2 FEW
11:45 9.2 °C 1.1 °C 1018.2 hPa NNE 7.4 km/h 7.4 km/h 57% 0 mm WeatherDisplay:10.37 W/m2 FEW
11:50 9.4 °C 2 °C 1018.2 hPa WNW 7.4 km/h 7.4 km/h 60% 0 mm WeatherDisplay:10.37 W/m2 FEW
11:55 9.6 °C 1.5 °C 1017.8 hPa South 7.4 km/h 7.4 km/h 57% 0 mm WeatherDisplay:10.37 W/m2 FEW
12:00 9.7 °C 1.6 °C 1018.2 hPa South 7.4 km/h 7.4 km/h 57% 0 mm WeatherDisplay:10.37 W/m2 FEW
12:11 9.8 °C 1.2 °C 1017.8 hPa West 7.4 km/h 7.4 km/h 55% 0 mm WeatherDisplay:10.37 W/m2 FEW
12:16 9.7 °C 0.8 °C 1017.8 hPa NW 9.3 km/h 9.3 km/h 54% 0 mm WeatherDisplay:10.37 W/m2 FEW
12:21 9.8 °C 1.2 °C 1017.8 hPa SE 9.3 km/h 9.3 km/h 55% 0 mm WeatherDisplay:10.37 W/m2 FEW
12:26 9.8 °C 0.7 °C 1017.5 hPa SSW 11.1 km/h 11.1 km/h 53% 0 mm WeatherDisplay:10.37 W/m2 FEW
12:36 10.3 °C 1.4 °C 1017.5 hPa WSW 7.4 km/h 7.4 km/h 54% 0 mm WeatherDisplay:10.37 W/m2 FEW
12:41 10.6 °C 0.9 °C 1017.5 hPa NW 5.6 km/h 5.6 km/h 51% 0 mm WeatherDisplay:10.37 W/m2 FEW
12:46 10.7 °C 1 °C 1017.8 hPa WNW 5.6 km/h 5.6 km/h 51% 0 mm WeatherDisplay:10.37 W/m2 FEW
12:51 10.7 °C 1.3 °C 1017.5 hPa WSW 7.4 km/h 7.4 km/h 52% 0 mm WeatherDisplay:10.37 W/m2 FEW
12:56 10.6 °C 0.6 °C 1017.5 hPa South 14.8 km/h 14.8 km/h 50% 0 mm WeatherDisplay:10.37 W/m2 FEW
13:01 10.7 °C 0.7 °C 1017.5 hPa SSW 14.8 km/h 14.8 km/h 50% 0 mm WeatherDisplay:10.37 W/m2 FEW
13:17 11 °C 1.2 °C 1017.5 hPa WNW 13 km/h 13 km/h 51% 0 mm WeatherDisplay:10.37 W/m2 FEW
13:22 11 °C 0.9 °C 1017.5 hPa West 5.6 km/h 5.6 km/h 50% 0 mm WeatherDisplay:10.37 W/m2 FEW
13:27 11 °C 1.2 °C 1017.5 hPa WNW 5.6 km/h 5.6 km/h 51% 0 mm WeatherDisplay:10.37 W/m2 FEW
13:32 10.8 °C 1.1 °C 1017.5 hPa WNW 9.3 km/h 9.3 km/h 51% 0 mm WeatherDisplay:10.37 W/m2 FEW
13:37 10.9 °C 1.4 °C 1017.5 hPa SW 9.3 km/h 9.3 km/h 52% 0 mm WeatherDisplay:10.37 W/m2 FEW
13:47 10.8 °C 1.1 °C 1017.5 hPa SE 7.4 km/h 7.4 km/h 51% 0 mm WeatherDisplay:10.37 W/m2 FEW
13:57 10.5 °C 0.5 °C 1017.5 hPa South 7.4 km/h 7.4 km/h 50% 0 mm WeatherDisplay:10.37 W/m2 FEW
14:02 10.3 °C 0.6 °C 1017.5 hPa South 7.4 km/h 7.4 km/h 51% 0 mm WeatherDisplay:10.37 W/m2 FEW
14:07 10.3 °C 0.6 °C 1017.5 hPa SSE 7.4 km/h 7.4 km/h 51% 0 mm WeatherDisplay:10.37 W/m2 FEW
14:23 10.4 °C 0.1 °C 1017.5 hPa WSW 7.4 km/h 7.4 km/h 49% 0 mm WeatherDisplay:10.37 W/m2 FEW
14:28 10.4 °C 0.4 °C 1017.5 hPa SE 7.4 km/h 7.4 km/h 50% 0 mm WeatherDisplay:10.37 W/m2 FEW
14:33 10.5 °C 0.8 °C 1017.5 hPa SSE 7.4 km/h 7.4 km/h 51% 0 mm WeatherDisplay:10.37 W/m2 FEW
14:38 10.4 °C 0.4 °C 1017.5 hPa WNW 9.3 km/h 9.3 km/h 50% 0 mm WeatherDisplay:10.37 W/m2 FEW
14:43 10.2 °C 0.2 °C 1017.5 hPa WSW 11.1 km/h 11.1 km/h 50% 0 mm WeatherDisplay:10.37 W/m2 FEW
14:48 10.2 °C 0.4 °C 1017.5 hPa SSW 11.1 km/h 11.1 km/h 51% 0 mm WeatherDisplay:10.37 W/m2 FEW
14:53 10.2 °C 0.4 °C 1017.5 hPa WSW 11.1 km/h 11.1 km/h 51% 0 mm WeatherDisplay:10.37 W/m2 FEW
14:58 10.3 °C 0.3 °C 1017.5 hPa SW 14.8 km/h 14.8 km/h 50% 0 mm WeatherDisplay:10.37 W/m2 FEW
15:03 10.3 °C 0.3 °C 1017.5 hPa South 14.8 km/h   50% 0 mm WeatherDisplay:10.37 W/m2 FEW
15:08 10.4 °C 0.1 °C 1017.5 hPa South 14.8 km/h 14.8 km/h 49% 0 mm WeatherDisplay:10.37 W/m2 FEW
15:13 10.3 °C -0.2 °C 1017.5 hPa SE 11.1 km/h 11.1 km/h 48% 0 mm WeatherDisplay:10.37 W/m2 FEW
15:18 10.3 °C -0.3 °C 1017.5 hPa South 11.1 km/h 11.1 km/h 48% 0 mm WeatherDisplay:10.37 W/m2 FEW
15:23 10.3 °C 0.1 °C 1017.5 hPa WSW 7.4 km/h   49% 0 mm WeatherDisplay:10.37 W/m2 FEW
15:31 10.2 °C 0.2 °C 1017.5 hPa WNW 9.3 km/h 9.3 km/h 50% 0 mm WeatherDisplay:10.37 W/m2 FEW
15:41 10.1 °C -0.2 °C 1017.8 hPa NW 7.4 km/h 7.4 km/h 49% 0 mm WeatherDisplay:10.37 W/m2 FEW
15:46 10.1 °C 0.4 °C 1017.8 hPa NNW 7.4 km/h 7.4 km/h 51% 0 mm WeatherDisplay:10.37 W/m2 FEW
15:56 10 °C 0.6 °C 1017.8 hPa WNW 7.4 km/h   52% 0 mm WeatherDisplay:10.37 W/m2 FEW
16:06 9.9 °C -0.3 °C 1017.8 hPa SE 11.1 km/h 11.1 km/h 49% 0 mm WeatherDisplay:10.37 W/m2 CLR
16:11 9.8 °C -0.4 °C 1018.2 hPa SSW 11.1 km/h 11.1 km/h 49% 0 mm WeatherDisplay:10.37 W/m2 CLR
16:32 9.4 °C -0.4 °C 1018.2 hPa WNW 11.1 km/h 11.1 km/h 50% 0 mm WeatherDisplay:10.37 W/m2 CLR
16:37 9.3 °C 0.2 °C 1018.2 hPa West 11.1 km/h 11.1 km/h 53% 0 mm WeatherDisplay:10.37 W/m2 CLR
16:47 9.1 °C 0.2 °C 1018.2 hPa West 5.6 km/h 5.6 km/h 54% 0 mm WeatherDisplay:10.37 W/m2 CLR
16:52 8.9 °C -0.1 °C 1018.5 hPa NNE 3.7 km/h 3.7 km/h 53% 0 mm WeatherDisplay:10.37 W/m2 CLR
16:57 8.9 °C -0.4 °C 1018.5 hPa East 3.7 km/h   52% 0 mm WeatherDisplay:10.37 W/m2 CLR
17:02 8.9 °C 0.1 °C 1018.2 hPa SSE 3.7 km/h 3.7 km/h 54% 0 mm WeatherDisplay:10.37 W/m2 CLR
17:07 8.7 °C -0.4 °C 1018.2 hPa SW 5.6 km/h 5.6 km/h 53% 0 mm WeatherDisplay:10.37 W/m2 CLR
17:12 8.6 °C 0.3 °C 1018.2 hPa WSW 5.6 km/h   56% 0 mm WeatherDisplay:10.37 W/m2 CLR
17:17 8.5 °C -0.3 °C 1018.2 hPa SSW 3.7 km/h 3.7 km/h 54% 0 mm WeatherDisplay:10.37 W/m2 CLR
17:22 8.4 °C -0.2 °C 1018.5 hPa East 3.7 km/h   55% 0 mm WeatherDisplay:10.37 W/m2 CLR
17:28 8.3 °C 0.2 °C 1018.5 hPa ESE 3.7 km/h   57% 0 mm WeatherDisplay:10.37 W/m2 CLR
17:33 8.1 °C 0.1 °C 1018.5 hPa NNW 3.7 km/h   57% 0 mm WeatherDisplay:10.37 W/m2 CLR
17:43 7.8 °C -0.2 °C 1018.8 hPa ESE 5.6 km/h   57% 0 mm WeatherDisplay:10.37 W/m2 CLR
17:48 7.7 °C 0.6 °C 1018.8 hPa ESE 5.6 km/h   61% 0 mm WeatherDisplay:10.37 W/m2 CLR
17:53 7.5 °C -0.2 °C 1018.8 hPa ESE 1.9 km/h 1.9 km/h 58% 0 mm WeatherDisplay:10.37 W/m2 CLR
18:03 7.2 °C 0.2 °C 1019.2 hPa West 1.9 km/h   61% 0 mm WeatherDisplay:10.37 W/m2 CLR
18:08 7.1 °C 0.3 °C 1019.2 hPa SW 5.6 km/h   62% 0 mm WeatherDisplay:10.37 W/m2 CLR
18:18 6.8 °C 0 °C 1019.5 hPa SW 1.9 km/h   62% 0 mm WeatherDisplay:10.37 W/m2 CLR
18:23 6.6 °C 0.1 °C 1019.5 hPa NNW 1.9 km/h   63% 0 mm WeatherDisplay:10.37 W/m2 CLR
18:28 6.5 °C 0.2 °C 1019.9 hPa North 1.9 km/h   64% 0 mm WeatherDisplay:10.37 W/m2 CLR
18:34 6.4 °C 0.1 °C 1019.9 hPa NW 1.9 km/h   64% 0 mm WeatherDisplay:10.37 W/m2 CLR
18:39 6.3 °C 0.2 °C 1020.2 hPa West 1.9 km/h   65% 0 mm WeatherDisplay:10.37 W/m2 CLR
18:44 6.3 °C -0.3 °C 1020.2 hPa West 1.9 km/h   63% 0 mm WeatherDisplay:10.37 W/m2 CLR
18:54 6.3 °C -0.3 °C 1020.2 hPa NNE 3.7 km/h   63% 0 mm WeatherDisplay:10.37 W/m2 CLR
19:09 6 °C -0.3 °C 1020.5 hPa NNW 1.9 km/h 1.9 km/h 64% 0 mm WeatherDisplay:10.37 W/m2 CLR
19:14 6 °C -0.5 °C 1020.5 hPa ESE 7.4 km/h   63% 0 mm WeatherDisplay:10.37 W/m2 CLR
19:24 6 °C -0.7 °C 1020.5 hPa SSE 1.9 km/h   62% 0 mm WeatherDisplay:10.37 W/m2 CLR
19:40 5.6 °C -0.3 °C 1020.5 hPa Calm   1.6 km/h 66% 0 mm WeatherDisplay:10.37 W/m2 CLR
19:45 5.5 °C -0.3 °C 1020.5 hPa West 1.9 km/h   66% 0 mm WeatherDisplay:10.37 W/m2 CLR
19:50 5.4 °C -0.4 °C 1020.5 hPa West 1.9 km/h   66% 0 mm WeatherDisplay:10.37 W/m2 CLR
19:55 5.3 °C -0.3 °C 1020.9 hPa West 1.9 km/h   67% 0 mm WeatherDisplay:10.37 W/m2 CLR
20:00 5.3 °C -0.3 °C 1020.9 hPa West 1.9 km/h   67% 0 mm WeatherDisplay:10.37 W/m2 CLR
20:05 5.2 °C -0.3 °C 1020.9 hPa WNW 1.9 km/h   68% 0 mm WeatherDisplay:10.37 W/m2 CLR
20:10 5.1 °C -0.4 °C 1020.9 hPa Calm     68% 0 mm WeatherDisplay:10.37 W/m2 CLR
20:20 4.8 °C -0.2 °C 1020.9 hPa Calm     70% 0 mm WeatherDisplay:10.37 W/m2 CLR
20:36 4.5 °C -0.1 °C 1021.2 hPa Calm     72% 0 mm WeatherDisplay:10.37 W/m2 CLR
20:41 4.4 °C -0.4 °C 1021.2 hPa Calm     71% 0 mm WeatherDisplay:10.37 W/m2 CLR
20:56 4.2 °C -0.4 °C 1021.2 hPa Calm     72% 0 mm WeatherDisplay:10.37 W/m2 CLR
21:01 4.2 °C -0.4 °C 1021.2 hPa WNW 1.9 km/h 1.9 km/h 72% 0 mm WeatherDisplay:10.37 W/m2 CLR
21:06 4.3 °C -0.3 °C 1021.2 hPa West 1.9 km/h   72% 0 mm WeatherDisplay:10.37 W/m2 CLR
21:20 4.2 °C -0.4 °C 1021.6 hPa WNW 1.9 km/h   72% 0 mm WeatherDisplay:10.37 W/m2 CLR
21:25 4.2 °C -0.4 °C 1021.6 hPa WNW 1.9 km/h   72% 0 mm WeatherDisplay:10.37 W/m2 CLR
21:30 4.2 °C -0.2 °C 1021.9 hPa WNW 1.9 km/h   73% 0 mm WeatherDisplay:10.37 W/m2 CLR
21:35 4.1 °C -0.3 °C 1021.9 hPa WNW 1.9 km/h   73% 0 mm WeatherDisplay:10.37 W/m2 CLR
21:40 4.1 °C -0.3 °C 1021.9 hPa WNW 1.9 km/h   73% 0 mm WeatherDisplay:10.37 W/m2 CLR
21:45 4.1 °C -0.5 °C 1021.9 hPa WNW 1.9 km/h 1.9 km/h 72% 0 mm WeatherDisplay:10.37 W/m2 CLR
21:51 4.2 °C -0.6 °C 1021.9 hPa West 1.9 km/h   71% 0 mm WeatherDisplay:10.37 W/m2 CLR
22:01 4.2 °C -0.8 °C 1022.2 hPa NW 1.9 km/h   70% 0 mm WeatherDisplay:10.37 W/m2 CLR
22:06 4.1 °C -0.9 °C 1022.2 hPa North 1.9 km/h   70% 0 mm WeatherDisplay:10.37 W/m2 CLR
22:11 4.2 °C -1.2 °C 1022.2 hPa North 3.7 km/h 3.7 km/h 68% 0 mm WeatherDisplay:10.37 W/m2 CLR
22:26 4.4 °C -1.4 °C 1022.2 hPa SSE 7.4 km/h   66% 0 mm WeatherDisplay:10.37 W/m2 CLR
22:39 4.3 °C -1.5 °C 1022.2 hPa SSE 7.4 km/h   66% 0 mm WeatherDisplay:10.37 W/m2 CLR
22:44 4.2 °C -1.6 °C 1022.2 hPa NNE 5.6 km/h   66% 0 mm WeatherDisplay:10.37 W/m2 CLR
22:49 4.1 °C -1.7 °C 1021.9 hPa NE 3.7 km/h   66% 0 mm WeatherDisplay:10.37 W/m2 CLR
22:59 3.9 °C -1.3 °C 1022.2 hPa WNW 1.9 km/h   69% 0 mm WeatherDisplay:10.37 W/m2 CLR
23:09 3.6 °C -1.3 °C 1022.6 hPa WNW 1.9 km/h   70% 0 mm WeatherDisplay:10.37 W/m2 CLR
23:14 3.4 °C -1.5 °C 1022.6 hPa Calm     70% 0 mm WeatherDisplay:10.37 W/m2 CLR
23:20 3.3 °C -1.6 °C 1022.6 hPa Calm   1.6 km/h 70% 0 mm WeatherDisplay:10.37 W/m2 CLR
23:35 2.9 °C -1.5 °C 1022.6 hPa Calm     73% 0 mm WeatherDisplay:10.37 W/m2 CLR
23:40 2.7 °C -1.6 °C 1022.6 hPa Calm     73% 0 mm WeatherDisplay:10.37 W/m2 CLR
23:45 2.7 °C -1.4 °C 1022.6 hPa Calm     74% 0 mm WeatherDisplay:10.37 W/m2 CLR
23:50 2.5 °C -1.5 °C 1022.6 hPa Calm     75% 0 mm WeatherDisplay:10.37 W/m2 CLR
23:55 2.4 °C -1.4 °C 1022.9 hPa Calm     76% 0 mm WeatherDisplay:10.37 W/m2 CLR
Piedmont Bend
Compliments of Weather Underground - 4 mb